Time;durP1;ratioP1;P1;durP2;ratioP2;P2;SDS_P1;SDS_P2;PMS_P1;PMS_P2;Temp;Humidity;BMP_temperature;BMP_pressure;BME280_temperature;BME280_humidity;BME280_pressure;Samples;Min_cycle;Max_cycle;Signal;HPM_P1;HPM_P2
2022/07/25 00:00:09;;;;;;;8.40;6.25;;;;;;;21.78;66.03;100959.63;5028633;28;20485;-75
2022/07/25 00:02:35;;;;;;;9.52;7.00;;;;;;;21.73;65.20;100956.44;5033789;28;20029;-74
2022/07/25 00:05:00;;;;;;;7.30;6.43;;;;;;;21.73;64.28;100959.09;5032041;28;20052;-74
2022/07/25 00:07:26;;;;;;;7.85;6.40;;;;;;;21.70;66.06;100954.00;5029589;28;20372;-74
2022/07/25 00:09:52;;;;;;;8.98;6.53;;;;;;;21.69;66.65;100950.53;5028597;28;20104;-74
2022/07/25 00:12:17;;;;;;;7.03;6.32;;;;;;;21.70;66.92;100951.34;5032404;28;20075;-74
2022/07/25 00:14:43;;;;;;;10.10;6.43;;;;;;;21.66;66.54;100951.59;5031312;28;20036;-74
2022/07/25 00:17:08;;;;;;;7.53;6.32;;;;;;;21.64;66.57;100942.06;5029363;28;20528;-74
2022/07/25 00:19:33;;;;;;;8.52;6.50;;;;;;;21.60;66.91;100944.09;5030460;28;20423;-74
2022/07/25 00:21:59;;;;;;;9.55;6.95;;;;;;;21.58;65.42;100935.38;5039926;28;20047;-74
2022/07/25 00:24:24;;;;;;;10.10;6.88;;;;;;;21.55;64.91;100932.94;5030019;28;20028;-74
2022/07/25 00:26:49;;;;;;;9.13;6.82;;;;;;;21.49;66.76;100928.94;5025012;28;20487;-74
2022/07/25 00:29:15;;;;;;;8.95;7.03;;;;;;;21.46;66.28;100928.31;5028246;28;20053;-74
2022/07/25 00:31:40;;;;;;;7.55;6.63;;;;;;;21.41;65.82;100931.28;5028565;28;20716;-74
2022/07/25 00:34:05;;;;;;;10.50;7.35;;;;;;;21.35;65.30;100929.88;5028777;28;20165;-74
2022/07/25 00:36:31;;;;;;;10.13;6.68;;;;;;;21.30;65.96;100928.53;5026964;28;20025;-74
2022/07/25 00:38:56;;;;;;;8.77;6.45;;;;;;;21.29;66.17;100927.69;5027993;28;20021;-74
2022/07/25 00:41:21;;;;;;;8.35;6.35;;;;;;;21.27;66.09;100921.66;5028420;28;20158;-73
2022/07/25 00:43:47;;;;;;;9.18;6.70;;;;;;;21.23;65.94;100922.81;5027716;28;20029;-73
2022/07/25 00:46:13;;;;;;;8.80;7.00;;;;;;;21.18;65.43;100912.56;5027471;28;20029;-74
2022/07/25 00:48:39;;;;;;;7.95;6.78;;;;;;;21.12;67.63;100910.34;5026122;28;20044;-74
2022/07/25 00:51:05;;;;;;;8.95;7.38;;;;;;;21.10;68.07;100906.13;5030185;28;20020;-74
2022/07/25 00:53:30;;;;;;;9.27;6.88;;;;;;;21.08;67.11;100909.72;5026164;28;20325;-73
2022/07/25 00:55:56;;;;;;;10.45;7.78;;;;;;;21.06;66.37;100905.50;5028225;28;20898;-74
2022/07/25 00:58:21;;;;;;;10.63;7.45;;;;;;;21.05;65.77;100901.16;5029992;28;20032;-74
2022/07/25 01:00:46;;;;;;;12.32;7.32;;;;;;;21.04;65.28;100900.28;5028210;28;20072;-75
2022/07/25 01:03:12;;;;;;;10.50;7.63;;;;;;;21.00;67.72;100893.53;5029036;28;20033;-74
2022/07/25 01:05:37;;;;;;;9.73;8.13;;;;;;;20.99;67.89;100902.41;5030719;28;20034;-74
2022/07/25 01:08:03;;;;;;;10.00;8.05;;;;;;;20.99;67.69;100897.13;5032420;28;20412;-74
2022/07/25 01:10:30;;;;;;;10.07;7.47;;;;;;;20.96;68.17;100889.41;5032566;28;20025;-74
2022/07/25 01:12:56;;;;;;;8.48;7.50;;;;;;;20.95;68.50;100887.72;5030329;28;20088;-74
2022/07/25 01:15:22;;;;;;;9.00;7.60;;;;;;;20.92;68.41;100886.09;5031477;28;20125;-74
2022/07/25 01:17:48;;;;;;;11.40;7.60;;;;;;;20.90;68.01;100880.09;5031459;28;20031;-74
2022/07/25 01:20:18;;;;;;;9.07;7.80;;;;;;;20.87;68.32;100877.66;5029352;28;20025;-74
2022/07/25 01:22:44;;;;;;;10.27;8.32;;;;;;;20.85;68.09;100876.06;5030918;28;20025;-74
2022/07/25 01:25:11;;;;;;;9.35;8.15;;;;;;;20.84;67.29;100863.78;5032280;28;20021;-74
2022/07/25 01:27:37;;;;;;;9.63;8.27;;;;;;;20.83;66.51;100864.75;5031946;28;20041;-74
2022/07/25 01:30:07;;;;;;;10.40;8.48;;;;;;;20.80;65.89;100857.88;5031154;28;20024;-74
2022/07/25 01:32:33;;;;;;;9.70;8.05;;;;;;;20.81;65.96;100858.72;5027310;28;20465;-74
2022/07/25 01:34:58;;;;;;;12.40;8.65;;;;;;;20.77;67.96;100853.66;5034003;28;20542;-74
2022/07/25 01:37:24;;;;;;;11.00;8.52;;;;;;;20.77;66.52;100855.44;5032821;28;20104;-74
2022/07/25 01:39:49;;;;;;;10.88;7.90;;;;;;;20.76;66.39;100857.25;5029292;28;20021;-74
2022/07/25 01:42:14;;;;;;;11.88;7.97;;;;;;;20.74;66.60;100856.47;5029177;28;20098;-74
2022/07/25 01:44:39;;;;;;;10.18;8.20;;;;;;;20.76;66.79;100856.38;5031642;28;20068;-74
2022/07/25 01:47:05;;;;;;;10.07;7.95;;;;;;;20.76;66.76;100851.09;5031065;28;20033;-74
2022/07/25 01:49:30;;;;;;;12.30;8.20;;;;;;;20.75;65.89;100844.97;5031643;28;20032;-73
2022/07/25 01:51:55;;;;;;;11.50;8.48;;;;;;;20.76;66.19;100849.31;5031508;28;20029;-73
2022/07/25 01:54:21;;;;;;;11.15;8.43;;;;;;;20.76;65.50;100836.09;5030544;28;20040;-73
2022/07/25 01:56:46;;;;;;;10.48;8.02;;;;;;;20.80;65.15;100833.25;5028859;28;20029;-73
2022/07/25 01:59:11;;;;;;;10.52;7.75;;;;;;;20.85;64.09;100839.03;5025525;28;20029;-74
2022/07/25 02:01:37;;;;;;;11.38;8.07;;;;;;;20.89;63.53;100827.31;5031013;28;20480;-74
2022/07/25 02:04:02;;;;;;;9.77;7.30;;;;;;;20.97;63.60;100824.13;5030543;28;20036;-74
2022/07/25 02:06:27;;;;;;;10.68;7.75;;;;;;;21.01;63.15;100817.66;5030374;28;20032;-73
2022/07/25 02:08:53;;;;;;;9.98;7.50;;;;;;;21.05;63.02;100812.03;5031325;28;20433;-74
2022/07/25 02:11:18;;;;;;;9.73;7.15;;;;;;;21.08;63.08;100811.84;5032170;28;20017;-74
2022/07/25 02:13:43;;;;;;;11.07;7.43;;;;;;;21.13;62.73;100813.31;5031546;28;20078;-74
2022/07/25 02:16:09;;;;;;;9.60;7.50;;;;;;;21.17;62.22;100809.50;5033717;28;20029;-74
2022/07/25 02:18:34;;;;;;;9.13;7.20;;;;;;;21.19;62.09;100802.28;5030876;28;20036;-74
2022/07/25 02:21:00;;;;;;;9.55;7.88;;;;;;;21.22;61.95;100799.41;5031602;28;20068;-74
2022/07/25 02:23:25;;;;;;;9.32;7.00;;;;;;;21.22;61.90;100807.34;5032208;28;20033;-73
2022/07/25 02:25:50;;;;;;;9.27;6.93;;;;;;;21.25;61.69;100807.13;5028688;28;20128;-74
2022/07/25 02:28:16;;;;;;;11.40;7.53;;;;;;;21.26;61.63;100805.34;5031627;28;20034;-74
2022/07/25 02:30:41;;;;;;;9.65;7.40;;;;;;;21.26;61.44;100808.84;5033596;28;20048;-74
2022/07/25 02:33:06;;;;;;;9.30;7.15;;;;;;;21.28;61.54;100806.94;5030542;28;20476;-73
2022/07/25 02:35:31;;;;;;;10.18;7.47;;;;;;;21.28;61.41;100799.00;5030173;28;20048;-73
2022/07/25 02:37:57;;;;;;;11.52;7.90;;;;;;;21.29;61.46;100797.16;5029538;28;20063;-74
2022/07/25 02:40:22;;;;;;;10.40;7.15;;;;;;;21.29;61.83;100795.38;5028851;28;20063;-74
2022/07/25 02:42:47;;;;;;;13.02;8.10;;;;;;;21.27;61.46;100794.66;5032077;28;20105;-73
2022/07/25 02:45:13;;;;;;;10.10;8.13;;;;;;;21.28;61.73;100796.34;5030147;28;20131;-74
2022/07/25 02:47:38;;;;;;;11.02;7.93;;;;;;;21.28;61.19;100785.75;5030740;28;20464;-74
2022/07/25 02:50:04;;;;;;;10.32;7.57;;;;;;;21.28;61.44;100782.25;5026903;28;20036;-74
2022/07/25 02:52:29;;;;;;;9.77;8.05;;;;;;;21.26;61.66;100785.03;5030259;28;20251;-74
2022/07/25 02:54:55;;;;;;;11.85;8.20;;;;;;;21.26;61.07;100774.44;5030943;28;20520;-74
2022/07/25 02:57:20;;;;;;;9.85;7.68;;;;;;;21.27;61.34;100775.28;5032784;28;20047;-74
2022/07/25 02:59:45;;;;;;;10.32;7.80;;;;;;;21.25;61.35;100778.03;5028144;28;20036;-74
2022/07/25 03:02:10;;;;;;;10.45;7.97;;;;;;;21.25;60.93;100775.38;5029976;28;20042;-73
2022/07/25 03:04:36;;;;;;;9.75;7.68;;;;;;;21.24;61.09;100776.34;5031449;28;20029;-74
2022/07/25 03:07:01;;;;;;;10.85;8.10;;;;;;;21.23;60.84;100775.50;5029619;28;20017;-74
2022/07/25 03:09:26;;;;;;;8.85;7.45;;;;;;;21.23;61.05;100772.00;5027560;28;21087;-74
2022/07/25 03:11:51;;;;;;;11.07;8.13;;;;;;;21.22;61.13;100778.25;5028504;28;20025;-74
2022/07/25 03:14:17;;;;;;;9.65;7.28;;;;;;;21.21;60.94;100768.63;5030575;28;20460;-74
2022/07/25 03:16:42;;;;;;;7.88;6.88;;;;;;;21.19;61.28;100759.94;5027403;28;20033;-74
2022/07/25 03:19:11;;;;;;;10.13;7.15;;;;;;;21.18;60.28;100761.75;5037265;28;20021;-73
2022/07/25 03:21:37;;;;;;;9.65;6.82;;;;;;;21.18;60.75;100755.66;5027804;28;20095;-73
2022/07/25 03:24:02;;;;;;;9.40;6.68;;;;;;;21.17;60.46;100748.66;5028207;28;20432;-74
2022/07/25 03:26:27;;;;;;;8.57;6.65;;;;;;;21.16;60.26;100744.31;5023243;28;20063;-73
2022/07/25 03:28:53;;;;;;;9.85;7.10;;;;;;;21.17;59.98;100735.44;5027271;28;20052;-73
2022/07/25 03:31:18;;;;;;;10.02;6.68;;;;;;;21.16;60.33;100749.63;5025150;28;20496;-74
2022/07/25 03:33:43;;;;;;;9.50;6.72;;;;;;;21.14;60.40;100744.41;5024514;28;20036;-73
2022/07/25 03:36:10;;;;;;;9.60;6.60;;;;;;;21.15;60.00;100739.97;5027113;28;20038;-74
2022/07/25 03:38:36;;;;;;;7.88;6.30;;;;;;;21.14;59.81;100749.69;5024755;28;20524;-74
2022/07/25 03:41:01;;;;;;;9.98;6.20;;;;;;;21.13;60.12;100744.53;5027769;28;20036;-74
2022/07/25 03:43:27;;;;;;;7.32;6.10;;;;;;;21.12;60.02;100742.84;5028903;28;20392;-74
2022/07/25 03:45:52;;;;;;;8.95;6.10;;;;;;;21.12;60.58;100742.84;5030080;28;20021;-74
2022/07/25 03:48:17;;;;;;;7.97;6.18;;;;;;;21.11;60.59;100739.34;5028130;28;20030;-74
2022/07/25 03:50:43;;;;;;;10.93;6.78;;;;;;;21.10;60.49;100742.09;5027154;28;20037;-74
2022/07/25 03:53:08;;;;;;;8.07;6.22;;;;;;;21.10;60.35;100736.81;5026061;28;20083;-74
2022/07/25 03:55:33;;;;;;;8.02;6.00;;;;;;;21.10;60.34;100731.53;5027346;28;20029;-74
2022/07/25 03:57:58;;;;;;;9.82;6.30;;;;;;;21.07;60.17;100738.72;5028018;28;20044;-74
2022/07/25 04:00:24;;;;;;;8.55;6.30;;;;;;;21.07;60.57;100733.44;5027230;28;20427;-74
2022/07/25 04:02:49;;;;;;;7.90;6.30;;;;;;;21.07;60.11;100733.44;5025594;28;20036;-74
2022/07/25 04:05:14;;;;;;;10.60;6.35;;;;;;;21.07;59.99;100732.59;5028170;28;20060;-74
2022/07/25 04:07:40;;;;;;;8.75;6.18;;;;;;;21.05;60.03;100735.34;5027054;28;20037;-74
2022/07/25 04:10:06;;;;;;;10.20;6.32;;;;;;;21.06;60.08;100728.28;5025622;28;20014;-74
2022/07/25 04:12:32;;;;;;;6.32;5.45;;;;;;;21.05;60.12;100723.94;5029650;28;20052;-74
2022/07/25 04:14:57;;;;;;;7.95;6.03;;;;;;;21.04;59.93;100720.44;5028781;28;20029;-74
2022/07/25 04:17:22;;;;;;;7.57;5.95;;;;;;;21.05;60.05;100723.94;5027310;28;20033;-74
2022/07/25 04:19:48;;;;;;;8.50;6.20;;;;;;;21.05;59.61;100714.19;5031393;28;20477;-74
2022/07/25 04:22:13;;;;;;;8.32;6.20;;;;;;;21.06;60.00;100717.69;5026216;28;20048;-74
2022/07/25 04:24:38;;;;;;;6.45;5.75;;;;;;;21.07;60.27;100722.84;5029575;28;20437;-74
2022/07/25 04:27:04;;;;;;;8.85;5.63;;;;;;;21.07;60.02;100728.16;5029690;28;20025;-74
2022/07/25 04:29:29;;;;;;;6.63;5.93;;;;;;;21.10;59.72;100720.94;5028492;28;20025;-74
2022/07/25 04:31:54;;;;;;;7.72;6.20;;;;;;;21.07;59.85;100706.97;5027738;28;20483;-74
2022/07/25 04:34:19;;;;;;;8.07;5.78;;;;;;;21.08;59.80;100719.25;5045545;28;20481;-74
2022/07/25 04:36:45;;;;;;;8.63;5.55;;;;;;;21.09;59.83;100720.13;5028927;28;20482;-74
2022/07/25 04:39:10;;;;;;;13.43;6.10;;;;;;;21.09;59.77;100722.75;5029692;28;20038;-74
2022/07/25 04:41:36;;;;;;;9.77;5.95;;;;;;;21.10;59.87;100716.47;5030688;28;20448;-74
2022/07/25 04:44:01;;;;;;;7.68;6.00;;;;;;;21.08;59.80;100719.25;5032816;28;20021;-74
2022/07/25 04:46:26;;;;;;;7.97;5.97;;;;;;;21.11;60.16;100714.69;5031410;28;20018;-74
2022/07/25 04:48:52;;;;;;;9.00;6.20;;;;;;;21.12;59.96;100708.47;5029343;28;20033;-74
2022/07/25 04:51:17;;;;;;;7.53;6.18;;;;;;;21.13;59.98;100724.22;5033143;28;20041;-74
2022/07/25 04:53:43;;;;;;;9.05;6.50;;;;;;;21.14;60.25;100725.91;5031731;28;20047;-74
2022/07/25 04:56:08;;;;;;;8.65;6.30;;;;;;;21.16;60.13;100728.44;5032038;28;20033;-74
2022/07/25 04:58:34;;;;;;;9.77;6.75;;;;;;;21.15;60.35;100721.47;5032417;28;20143;-74
2022/07/25 05:00:59;;;;;;;9.15;6.50;;;;;;;21.16;59.48;100717.88;5029413;28;20087;-74
2022/07/25 05:03:25;;;;;;;7.97;6.05;;;;;;;21.18;59.89;100718.59;5032492;28;20021;-74
2022/07/25 05:05:51;;;;;;;10.18;6.00;;;;;;;21.18;60.32;100713.31;5030110;28;20041;-74
2022/07/25 05:08:16;;;;;;;9.30;6.07;;;;;;;21.18;59.82;100718.59;5030262;28;20062;-74
2022/07/25 05:10:42;;;;;;;9.05;6.57;;;;;;;21.19;59.62;100707.91;5032980;28;20409;-74
2022/07/25 05:13:08;;;;;;;7.95;5.93;;;;;;;21.21;60.29;100705.13;5028947;28;20036;-74
2022/07/25 05:15:33;;;;;;;7.72;6.32;;;;;;;21.24;60.51;100718.13;5031094;28;20021;-74
2022/07/25 05:17:58;;;;;;;8.63;6.50;;;;;;;21.26;60.94;100716.22;5031341;28;20113;-74
2022/07/25 05:20:26;;;;;;;7.50;6.13;;;;;;;21.28;59.76;100718.75;5032410;28;20574;-74
2022/07/25 05:22:51;;;;;;;8.77;6.47;;;;;;;21.29;59.55;100713.38;5029730;28;20032;-74
2022/07/25 05:25:17;;;;;;;9.02;6.50;;;;;;;21.33;60.17;100712.19;5028775;28;20033;-74
2022/07/25 05:27:42;;;;;;;9.85;6.10;;;;;;;21.38;60.39;100714.50;5032191;28;20079;-74
2022/07/25 05:30:09;;;;;;;9.68;6.20;;;;;;;21.41;59.57;100719.56;5031597;28;20025;-74
2022/07/25 05:32:35;;;;;;;9.00;6.63;;;;;;;21.44;59.94;100718.47;5034167;28;20029;-74
2022/07/25 05:35:00;;;;;;;8.88;6.28;;;;;;;21.46;59.61;100720.03;5031764;28;20408;-74
2022/07/25 05:37:25;;;;;;;9.80;6.35;;;;;;;21.49;59.20;100719.00;5034943;28;20113;-74
2022/07/25 05:39:51;;;;;;;8.45;5.85;;;;;;;21.50;59.66;100707.44;5029616;28;20492;-74
2022/07/25 05:42:17;;;;;;;7.20;6.15;;;;;;;21.52;59.52;100705.53;5029341;28;20029;-73
2022/07/25 05:44:43;;;;;;;7.70;5.97;;;;;;;21.55;60.10;100707.09;5029283;28;20409;-73
2022/07/25 05:47:12;;;;;;;8.75;5.90;;;;;;;21.57;59.91;100711.31;5030202;28;20120;-74
2022/07/25 05:49:37;;;;;;;9.00;6.10;;;;;;;21.58;60.48;100713.00;5030548;28;20496;-74
2022/07/25 05:52:04;;;;;;;9.65;6.03;;;;;;;21.59;60.14;100714.69;5030013;28;20029;-74
2022/07/25 05:54:29;;;;;;;8.85;6.25;;;;;;;21.60;60.71;100724.34;5033135;28;20029;-74
2022/07/25 05:56:54;;;;;;;7.47;5.30;;;;;;;21.62;59.30;100722.44;5031116;28;20108;-74
2022/07/25 05:59:20;;;;;;;7.47;5.00;;;;;;;21.65;59.66;100724.00;5029402;28;20025;-74
2022/07/25 06:01:45;;;;;;;7.22;5.40;;;;;;;21.67;59.64;100724.75;5031342;28;20083;-74
2022/07/25 06:04:10;;;;;;;8.60;5.47;;;;;;;21.71;59.42;100730.63;5029878;28;20044;-74
2022/07/25 06:06:36;;;;;;;6.65;5.32;;;;;;;21.74;59.89;100730.41;5033281;28;20026;-74
2022/07/25 06:09:01;;;;;;;7.90;5.28;;;;;;;21.77;59.08;100724.91;5028716;28;20021;-74
2022/07/25 06:11:27;;;;;;;8.45;5.65;;;;;;;21.80;59.29;100719.38;5028758;28;20026;-74
2022/07/25 06:13:53;;;;;;;6.75;5.25;;;;;;;21.82;59.29;100728.06;5028395;28;20021;-74
2022/07/25 06:16:18;;;;;;;7.60;5.18;;;;;;;21.85;58.55;100735.78;5029209;28;20036;-74
2022/07/25 06:18:43;;;;;;;8.60;5.47;;;;;;;21.88;58.17;100738.16;5029258;28;20325;-74
2022/07/25 06:21:09;;;;;;;8.95;5.32;;;;;;;21.90;57.79;100740.72;5027795;28;20128;-74
2022/07/25 06:23:34;;;;;;;9.20;5.28;;;;;;;21.92;57.45;100739.63;5029739;28;20104;-73
2022/07/25 06:25:59;;;;;;;11.27;5.20;;;;;;;21.95;57.40;100747.34;5028542;28;20088;-74
2022/07/25 06:28:24;;;;;;;8.07;4.80;;;;;;;21.95;57.42;100744.69;5026294;28;20034;-74
2022/07/25 06:30:50;;;;;;;7.22;5.00;;;;;;;21.95;57.69;100736.75;5031429;28;20063;-74
2022/07/25 06:33:15;;;;;;;13.10;5.28;;;;;;;21.96;57.42;100733.16;5025440;28;20039;-74
2022/07/25 06:35:40;;;;;;;8.40;5.18;;;;;;;21.97;57.59;100742.78;5026944;28;20066;-74
2022/07/25 06:38:05;;;;;;;11.80;5.15;;;;;;;21.97;58.03;100749.88;5026058;28;20052;-75
2022/07/25 06:40:31;;;;;;;6.97;4.90;;;;;;;22.00;57.24;100740.88;5031826;28;20021;-74
2022/07/25 06:42:56;;;;;;;7.30;5.13;;;;;;;22.00;57.93;100746.16;5034841;28;20036;-75
2022/07/25 06:45:22;;;;;;;9.48;5.15;;;;;;;22.05;57.39;100755.44;5028254;28;20025;-74
2022/07/25 06:47:48;;;;;;;7.70;5.15;;;;;;;22.10;57.83;100747.13;5028410;28;20116;-74
2022/07/25 06:50:15;;;;;;;8.52;5.28;;;;;;;22.16;57.53;100751.97;5028044;28;20492;-74
2022/07/25 06:52:40;;;;;;;6.18;5.10;;;;;;;22.18;57.40;100760.66;5028427;28;20029;-74
2022/07/25 06:55:08;;;;;;;6.90;4.95;;;;;;;22.16;57.14;100740.53;5021991;28;20029;-74
2022/07/25 06:57:34;;;;;;;10.52;5.32;;;;;;;22.12;58.19;100740.75;5028014;28;20029;-74
2022/07/25 06:59:59;;;;;;;7.55;5.05;;;;;;;22.13;57.84;100742.44;5026211;28;20024;-73
2022/07/25 07:02:25;;;;;;;9.38;4.88;;;;;;;22.14;58.03;100748.59;5031741;28;20085;-74
2022/07/25 07:04:50;;;;;;;7.53;4.57;;;;;;;22.15;57.70;100752.94;5030012;28;20135;-72
2022/07/25 07:07:16;;;;;;;8.00;4.53;;;;;;;22.15;57.85;100750.28;5031883;28;20029;-74
2022/07/25 07:09:42;;;;;;;8.45;4.97;;;;;;;22.17;57.68;100747.50;5031362;28;20025;-74
2022/07/25 07:12:08;;;;;;;10.35;4.80;;;;;;;22.14;57.71;100748.59;5030811;28;20036;-74
2022/07/25 07:14:33;;;;;;;6.85;4.68;;;;;;;22.14;57.50;100743.31;5031061;28;20025;-74
2022/07/25 07:16:58;;;;;;;5.80;4.47;;;;;;;22.16;57.56;100737.88;5032307;28;20030;-74
2022/07/25 07:19:24;;;;;;;6.57;4.40;;;;;;;22.12;57.10;100726.66;5032626;28;20060;-74
2022/07/25 07:21:50;;;;;;;6.05;4.30;;;;;;;22.05;57.64;100734.25;5031474;28;20037;-74
2022/07/25 07:24:15;;;;;;;6.53;4.15;;;;;;;22.04;57.56;100737.84;5032732;28;20034;-74
2022/07/25 07:26:41;;;;;;;9.25;5.20;;;;;;;22.05;57.70;100746.63;5028741;28;20365;-74
2022/07/25 07:29:06;;;;;;;8.00;4.40;;;;;;;22.07;57.54;100742.06;5030958;28;20116;-74
2022/07/25 07:31:31;;;;;;;6.93;4.13;;;;;;;22.11;57.88;100739.09;5032098;28;20469;-74
2022/07/25 07:33:58;;;;;;;6.72;4.50;;;;;;;22.16;57.23;100746.69;5032796;28;20033;-74
2022/07/25 07:36:23;;;;;;;6.85;4.43;;;;;;;22.20;57.37;100748.13;5037741;28;20448;-74
2022/07/25 07:38:48;;;;;;;6.80;3.95;;;;;;;22.25;58.43;100745.97;5042539;28;20029;-74
2022/07/25 07:41:14;;;;;;;5.38;4.00;;;;;;;22.33;58.01;100748.03;5031439;28;20432;-74
2022/07/25 07:43:40;;;;;;;6.25;3.55;;;;;;;22.41;57.70;100750.94;5031585;28;20025;-74
2022/07/25 07:46:06;;;;;;;6.13;3.45;;;;;;;22.48;56.24;100756.63;5032050;28;20025;-74
2022/07/25 07:48:32;;;;;;;8.35;3.60;;;;;;;22.48;57.42;100750.47;5030110;28;20044;-74
2022/07/25 07:50:59;;;;;;;12.02;3.55;;;;;;;22.47;57.10;100754.94;5031933;28;20063;-74
2022/07/25 07:56:07;;;;;;;5.55;3.35;;;;;;;22.46;57.32;100753.25;5031775;28;20040;-74
2022/07/25 07:58:33;;;;;;;6.88;3.25;;;;;;;22.49;58.31;100747.72;5031010;28;20029;-74
2022/07/25 08:00:58;;;;;;;7.85;3.40;;;;;;;22.50;57.75;100764.44;5031708;28;20800;-74
2022/07/25 08:03:23;;;;;;;6.15;3.22;;;;;;;22.52;57.62;100762.53;5029212;28;20033;-74
2022/07/25 08:05:50;;;;;;;4.22;3.15;;;;;;;22.59;57.71;100764.59;5028461;28;20057;-73
2022/07/25 08:08:16;;;;;;;6.70;3.30;;;;;;;22.65;57.55;100757.94;5026511;28;20087;-74
2022/07/25 08:10:44;;;;;;;6.10;3.00;;;;;;;22.72;57.74;100759.16;5028559;28;20026;-74
2022/07/25 08:13:19;;;;;;;6.18;2.65;;;;;;;22.77;57.57;100761.44;5021778;28;20465;-74
2022/07/25 08:15:47;;;;;;;8.00;3.13;;;;;;;22.82;57.51;100769.91;5037973;28;20036;-74
2022/07/25 08:18:12;;;;;;;6.78;2.58;;;;;;;22.87;57.54;100762.44;5035633;28;20045;-74
2022/07/25 08:20:38;;;;;;;5.35;2.25;;;;;;;22.92;58.38;100759.41;5030047;28;20045;-74
2022/07/25 08:23:04;;;;;;;5.35;2.17;;;;;;;22.96;58.35;100754.69;5029906;28;20042;-75
2022/07/25 08:25:30;;;;;;;3.42;1.70;;;;;;;22.93;58.00;100755.78;5031483;28;20071;-74
2022/07/25 08:27:55;;;;;;;6.57;1.45;;;;;;;22.89;57.51;100764.94;5031751;28;20051;-75
2022/07/25 08:30:21;;;;;;;3.42;1.27;;;;;;;22.91;58.83;100759.50;5027488;28;20372;-74
2022/07/25 08:32:48;;;;;;;5.32;1.05;;;;;;;22.99;59.41;100765.06;5030550;28;20025;-74
2022/07/25 08:35:13;;;;;;;2.75;1.25;;;;;;;23.08;58.30;100764.31;5030894;28;20029;-74
2022/07/25 08:37:38;;;;;;;4.60;1.02;;;;;;;23.13;58.67;100763.97;5024176;28;20506;-74
2022/07/25 08:40:04;;;;;;;2.78;0.88;;;;;;;23.15;58.06;100775.28;5029266;28;20449;-74
2022/07/25 08:42:32;;;;;;;2.20;1.00;;;;;;;23.15;58.14;100769.97;5028072;28;20093;-74
2022/07/25 08:45:01;;;;;;;3.67;0.80;;;;;;;23.09;58.66;100775.78;5026694;28;20022;-74
2022/07/25 08:47:28;;;;;;;2.65;1.00;;;;;;;23.07;58.81;100778.53;5026873;28;20065;-74
2022/07/25 08:49:54;;;;;;;3.15;0.80;;;;;;;23.02;59.32;100786.03;5025163;28;20029;-74
2022/07/25 08:52:21;;;;;;;4.38;1.10;;;;;;;23.10;58.95;100788.91;5028140;28;20377;-74
2022/07/25 08:54:47;;;;;;;2.38;0.93;;;;;;;23.21;59.00;100787.25;5027615;28;20040;-74
2022/07/25 08:57:13;;;;;;;3.75;0.80;;;;;;;23.27;57.68;100781.44;5039395;28;20033;-74
2022/07/25 08:59:38;;;;;;;3.70;0.70;;;;;;;23.37;57.49;100768.25;5029697;28;20104;-74
2022/07/25 09:02:06;;;;;;;3.40;0.75;;;;;;;23.44;58.52;100772.94;5031514;28;20030;-73
2022/07/25 09:04:34;;;;;;;3.03;0.70;;;;;;;23.50;57.58;100771.59;5028627;28;20071;-73
2022/07/25 09:07:03;;;;;;;3.95;1.00;;;;;;;23.53;57.90;100770.53;5028848;28;20022;-73
2022/07/25 09:09:33;;;;;;;2.70;0.80;;;;;;;23.56;58.38;100770.28;5033991;28;20025;-74
2022/07/25 09:11:58;;;;;;;2.38;0.80;;;;;;;23.59;57.51;100777.97;5032952;28;20031;-74
2022/07/25 09:14:24;;;;;;;4.15;0.80;;;;;;;23.65;58.68;100782.78;5024252;28;20116;-75
2022/07/25 09:16:49;;;;;;;3.65;0.80;;;;;;;23.71;57.82;100779.63;5026857;28;20072;-74
2022/07/25 09:19:19;;;;;;;3.35;0.80;;;;;;;23.82;57.42;100783.19;5028725;28;20041;-75
2022/07/25 09:22:02;;;;;;;4.07;0.98;;;;;;;23.87;56.95;100781.00;5025637;28;20507;-75
2022/07/25 09:24:28;;;;;;;2.35;0.80;;;;;;;23.88;58.18;100775.56;5023315;28;20033;-75
2022/07/25 09:26:56;;;;;;;2.25;0.77;;;;;;;24.01;57.88;100783.38;5027405;28;20481;-75
2022/07/25 09:29:29;;;;;;;3.42;0.80;;;;;;;24.10;57.03;100777.28;5025276;28;20473;-75
2022/07/25 09:31:56;;;;;;;2.67;0.80;;;;;;;24.14;56.53;100796.50;5025799;28;20401;-76
2022/07/25 09:34:39;;;;;;;2.22;0.88;;;;;;;24.10;55.99;100797.72;5028589;28;20036;-75
2022/07/25 09:37:06;;;;;;;3.13;1.00;;;;;;;24.07;56.36;100793.50;5027516;28;20039;-75
2022/07/25 09:39:50;;;;;;;5.30;1.23;;;;;;;24.11;56.58;100799.41;5029843;28;20037;-76
2022/07/25 09:42:16;;;;;;;6.20;0.82;;;;;;;24.13;56.07;100801.91;5028121;28;20036;-75
2022/07/25 09:44:41;;;;;;;3.13;0.77;;;;;;;24.12;56.03;100802.88;5025692;28;20022;-76
2022/07/25 09:47:11;;;;;;;2.88;1.00;;;;;;;24.12;56.42;100810.88;5027179;28;20033;-76
2022/07/25 09:49:40;;;;;;;3.58;0.90;;;;;;;24.13;56.36;100813.41;5030861;28;20374;-75
2022/07/25 09:52:05;;;;;;;4.03;1.00;;;;;;;24.20;54.90;100808.41;5027842;28;20533;-75
2022/07/25 09:54:32;;;;;;;3.05;1.00;;;;;;;24.29;54.89;100812.94;5031463;28;20140;-76
2022/07/25 09:56:57;;;;;;;4.88;1.17;;;;;;;24.35;53.97;100820.41;5030332;28;20029;-76
2022/07/25 09:59:22;;;;;;;5.25;1.25;;;;;;;24.35;55.33;100809.78;5030578;28;20124;-76
2022/07/25 10:01:59;;;;;;;4.40;1.10;;;;;;;24.34;54.93;100810.75;5037143;28;20032;-76
2022/07/25 10:04:51;;;;;;;4.47;1.20;;;;;;;24.31;54.69;100808.34;5033507;28;20029;-76
2022/07/25 10:07:20;;;;;;;3.30;1.00;;;;;;;24.29;55.52;100818.25;5037775;28;20063;-75
2022/07/25 10:09:53;;;;;;;4.10;1.10;;;;;;;24.28;56.10;100816.56;5033021;28;20061;-75
2022/07/25 10:12:20;;;;;;;3.20;1.20;;;;;;;24.25;55.78;100820.34;5031673;28;20033;-75
2022/07/25 10:15:05;;;;;;;5.50;1.20;;;;;;;24.30;55.76;100813.81;5036288;28;20083;-75
2022/07/25 10:17:31;;;;;;;4.45;1.20;;;;;;;24.30;53.67;100821.78;5033586;28;20044;-75
2022/07/25 10:19:56;;;;;;;3.90;1.30;;;;;;;24.29;53.73;100822.75;5031047;28;20030;-75
2022/07/25 10:22:21;;;;;;;5.50;1.40;;;;;;;24.25;53.14;100830.16;5027362;28;20037;-75
2022/07/25 10:24:47;;;;;;;3.50;1.48;;;;;;;24.22;54.21;100825.09;5026672;28;20502;-75
2022/07/25 10:27:19;;;;;;;5.13;1.60;;;;;;;24.24;54.23;100836.44;5028678;28;20025;-75
2022/07/25 10:29:51;;;;;;;2.28;1.23;;;;;;;24.33;54.59;100830.31;5028304;28;20029;-75
2022/07/25 10:32:17;;;;;;;4.50;1.60;;;;;;;24.44;52.77;100826.75;5029218;28;20022;-75
2022/07/25 10:34:51;;;;;;;5.82;1.60;;;;;;;24.53;53.47;100820.63;5029778;28;20075;-75
2022/07/25 10:37:17;;;;;;;3.95;1.90;;;;;;;24.66;53.41;100820.44;5022234;28;20456;-75
2022/07/25 10:39:44;;;;;;;4.40;1.40;;;;;;;24.74;54.10;100824.28;5026242;28;20029;-75
2022/07/25 10:42:14;;;;;;;5.82;1.60;;;;;;;24.78;52.47;100817.72;5020787;28;20030;-75
2022/07/25 10:44:47;;;;;;;4.27;1.60;;;;;;;24.83;52.06;100826.16;5024470;28;20041;-75
2022/07/25 10:47:13;;;;;;;3.72;1.30;;;;;;;24.86;51.94;100820.56;5027977;28;20048;-75
2022/07/25 10:49:41;;;;;;;4.97;1.50;;;;;;;24.94;52.97;100811.91;5027572;28;20022;-75
2022/07/25 10:52:14;;;;;;;5.32;1.50;;;;;;;24.98;52.19;100824.81;5024308;28;20021;-79
2022/07/25 10:54:39;;;;;;;2.83;1.42;;;;;;;25.09;52.02;100826.53;5024033;28;20061;-75
2022/07/25 10:57:12;;;;;;;4.93;1.40;;;;;;;25.25;50.25;100831.34;5021997;28;20524;-75
2022/07/25 10:59:38;;;;;;;3.58;1.50;;;;;;;25.32;49.82;100826.31;5027527;28;20114;-75
2022/07/25 11:02:15;;;;;;;3.95;1.40;;;;;;;25.38;49.68;100835.59;5027351;28;20480;-75
2022/07/25 11:04:41;;;;;;;1.92;1.30;;;;;;;25.42;46.75;100837.03;5029544;28;20056;-75
2022/07/25 11:07:14;;;;;;;6.05;1.48;;;;;;;25.40;48.49;100833.63;5030031;28;20036;-76
2022/07/25 11:09:41;;;;;;;2.80;1.50;;;;;;;25.37;47.36;100834.72;5026895;28;20032;-75
2022/07/25 11:12:08;;;;;;;2.80;1.40;;;;;;;25.36;47.68;100835.72;5029917;28;20057;-76
2022/07/25 11:14:41;;;;;;;4.25;1.30;;;;;;;25.42;48.88;100837.03;5025542;28;20780;-75
2022/07/25 11:17:09;;;;;;;5.75;1.38;;;;;;;25.40;48.33;100847.78;5026024;28;20243;-75
2022/07/25 11:19:35;;;;;;;3.30;1.30;;;;;;;25.39;47.98;100847.91;5024226;28;20022;-75
2022/07/25 11:22:03;;;;;;;3.45;1.20;;;;;;;25.34;48.56;100853.66;5024877;28;20060;-76